.
WxDataArchive / Data Records for 2014-11-30
2014-11-29 November 2014 2014-12-01

Data Records for Sunday, 30 November 2014

Time	Temp	Chill	HIndex	Humid	Dewpt	 Wind 	HiWind	WindDir	Rain 	Barom
-----	----	-----	------	-----	-----	------	------	-------	-----	-----
00:00	51.6	51.6	51.6	82	46.3	1	3	270	0.00	29.736 
00:05	51.6	51.6	51.6	83	46.6	1	5	248	0.00	29.736 
00:10	51.6	51.6	51.6	83	46.6	1	3	248	0.00	29.736 
00:15	51.6	51.6	51.6	83	46.6	1	4	248	0.00	29.734 
00:20	51.6	51.6	51.6	83	46.6	1	3	248	0.00	29.734 
00:25	51.4	51.4	51.4	83	46.4	0	2	248	0.00	29.734 
00:30	51.4	51.4	51.4	83	46.4	1	4	248	0.00	29.731 
00:35	51.4	51.4	51.4	83	46.4	1	3	248	0.00	29.731 
00:40	51.4	51.4	51.4	84	46.7	1	3	248	0.00	29.731 
00:45	51.6	51.6	51.6	84	46.9	1	5	248	0.00	29.734 
00:50	51.6	51.6	51.6	84	46.9	0	4	248	0.00	29.734 
00:55	51.6	51.6	51.6	84	46.9	0	3	248	0.00	29.734 
01:00	51.6	51.6	51.6	84	46.9	0	3	248	0.00	29.730 
01:05	51.6	51.6	51.6	84	46.9	0	2	248	0.00	29.730 
01:10	51.6	51.6	51.6	84	46.9	0	4	248	0.00	29.730 
01:15	51.6	51.6	51.6	84	46.9	0	3	248	0.00	29.724 
01:20	51.7	51.7	51.7	84	47.0	0	3	248	0.00	29.724 
01:25	51.7	51.7	51.7	84	47.0	0	2	248	0.00	29.724 
01:30	51.7	51.7	51.7	84	47.0	0	2	248	0.00	29.724 
01:35	51.7	51.7	51.7	84	47.0	0	1	248	0.00	29.724 
01:40	51.7	51.7	51.7	84	47.0	0	2	248	0.00	29.724 
01:45	51.7	51.7	51.7	84	47.0	0	2	248	0.00	29.723 
01:50	51.9	51.9	51.9	84	47.2	0	2	248	0.00	29.723 
01:55	51.9	51.9	51.9	84	47.2	0	3	248	0.00	29.723 
02:00	51.9	51.9	51.9	84	47.2	0	2	270	0.00	29.722 
02:05	51.9	51.9	51.9	84	47.2	0	1	292	0.00	29.722 
02:10	51.9	51.9	51.9	84	47.2	0	1	292	0.00	29.722 
02:15	51.9	51.9	51.9	84	47.2	0	2	292	0.00	29.721 
02:20	51.9	51.9	51.9	84	47.2	0	1	292	0.00	29.721 
02:25	51.9	51.9	51.9	84	47.2	0	2	292	0.00	29.721 
02:30	51.9	51.9	51.9	84	47.2	0	2	292	0.00	29.722 
02:35	51.9	51.9	51.9	84	47.2	0	1	292	0.00	29.722 
02:40	51.9	51.9	51.9	84	47.2	0	2	292	0.00	29.722 
02:45	52.0	52.0	52.0	85	47.6	0	1	292	0.00	29.725 
02:50	51.9	51.9	51.9	85	47.5	0	2	292	0.00	29.725 
02:55	51.9	51.9	51.9	85	47.5	0	1	292	0.00	29.725 
03:00	51.9	51.9	51.9	85	47.5	0	1	292	0.00	29.727 
03:05	51.7	51.7	51.7	85	47.3	0	1	292	0.00	29.727 
03:10	51.7	51.7	51.7	85	47.3	0	1	292	0.00	29.727 
03:15	51.7	51.7	51.7	85	47.3	0	1	292	0.00	29.726 
03:20	51.7	51.7	51.7	85	47.3	0	1	292	0.00	29.726 
03:25	51.7	51.7	51.7	86	47.6	0	1	292	0.00	29.726 
03:30	51.6	51.6	51.6	86	47.5	0	1	292	0.00	29.722 
03:35	51.6	51.6	51.6	86	47.5	0	2	292	0.00	29.722 
03:40	51.6	51.6	51.6	86	47.5	0	1	315	0.00	29.722 
03:45	51.3	51.3	51.3	86	47.3	0	1	315	0.00	29.723 
03:50	51.1	51.1	51.1	86	47.1	0	1	315	0.00	29.723 
03:55	51.0	51.0	51.0	86	47.0	0	1	315	0.00	29.723 
04:00	50.8	50.8	50.8	87	47.1	0	1	315	0.00	29.722 
04:05	50.7	50.7	50.7	87	47.0	0	1	315	0.00	29.722 
04:10	50.5	50.5	50.5	88	47.1	0	1	315	0.00	29.722 
04:15	50.5	50.5	50.5	88	47.1	0	1	292	0.00	29.720 
04:20	50.4	50.4	50.4	88	47.0	0	1	292	0.00	29.720 
04:25	50.4	50.4	50.4	88	47.0	0	1	292	0.00	29.720 
04:30	50.2	50.2	50.2	88	46.8	0	1	292	0.00	29.720 
04:35	50.1	50.1	50.1	89	47.0	0	2	315	0.00	29.720 
04:40	50.1	50.1	50.1	89	47.0	0	1	315	0.00	29.720 
04:45	50.1	50.1	50.1	89	47.0	0	1	315	0.00	29.716 
04:50	50.1	50.1	50.1	89	47.0	0	1	315	0.00	29.716 
04:55	50.1	50.1	50.1	90	47.3	0	1	315	0.00	29.716 
05:00	50.1	50.1	50.1	90	47.3	0	1	315	0.00	29.717 
05:05	50.1	50.1	50.1	90	47.3	0	2	315	0.00	29.717 
05:10	50.1	50.1	50.1	90	47.3	0	3	270	0.00	29.717 
05:15	50.1	50.1	50.1	90	47.3	0	1	270	0.00	29.719 
05:20	49.9	49.9	49.9	90	47.1	0	1	270	0.00	29.719 
05:25	49.9	49.9	49.9	91	47.4	0	1	270	0.00	29.719 
05:30	49.9	49.9	49.9	91	47.4	0	1	270	0.00	29.716 
05:35	49.9	49.9	49.9	91	47.4	0	2	270	0.00	29.716 
05:40	50.1	50.1	50.1	91	47.6	0	1	270	0.00	29.716 
05:45	50.1	50.1	50.1	91	47.6	0	2	270	0.00	29.718 
05:50	49.9	49.9	49.9	91	47.4	0	1	270	0.00	29.718 
05:55	49.9	49.9	49.9	91	47.4	0	1	270	0.00	29.718 
06:00	49.9	49.9	49.9	91	47.4	0	1	270	0.00	29.723 
06:05	49.9	49.9	49.9	91	47.4	0	1	270	0.00	29.723 
06:10	49.9	49.9	49.9	92	47.7	0	1	270	0.00	29.723 
06:15	50.1	50.1	50.1	92	47.9	0	1	270	0.00	29.722 
06:20	50.1	50.1	50.1	92	47.9	0	1	270	0.00	29.722 
06:25	50.2	50.2	50.2	92	48.0	0	1	270	0.00	29.722 
06:30	50.2	50.2	50.2	92	48.0	0	2	270	0.00	29.726 
06:35	50.2	50.2	50.2	92	48.0	0	2	270	0.00	29.726 
06:40	50.2	50.2	50.2	92	48.0	0	1	270	0.00	29.726 
06:45	50.2	50.2	50.2	92	48.0	0	1	270	0.00	29.731 
06:50	50.2	50.2	50.2	92	48.0	0	2	270	0.00	29.731 
06:55	50.2	50.2	50.2	92	48.0	0	1	270	0.00	29.731 
07:00	50.2	50.2	50.2	92	48.0	0	2	248	0.00	29.734 
07:05	50.2	50.2	50.2	92	48.0	0	1	248	0.00	29.734 
07:10	50.4	50.4	50.4	92	48.2	0	1	248	0.00	29.734 
07:15	50.4	50.4	50.4	92	48.2	0	1	248	0.00	29.736 
07:20	50.2	50.2	50.2	92	48.0	0	1	248	0.00	29.736 
07:25	50.2	50.2	50.2	92	48.0	0	1	248	0.00	29.736 
07:30	50.4	50.4	50.4	92	48.2	0	1	248	0.00	29.740 
07:35	50.4	50.4	50.4	92	48.2	0	2	248	0.00	29.740 
07:40	50.5	50.5	50.5	92	48.3	0	1	248	0.00	29.740 
07:45	50.5	50.5	50.5	92	48.3	0	2	248	0.00	29.742 
07:50	50.7	50.7	50.7	93	48.7	0	1	248	0.00	29.742 
07:55	50.8	50.8	50.8	93	48.8	0	2	248	0.00	29.742 
08:00	51.1	51.1	51.1	93	49.1	0	1	248	0.00	29.748 
08:05	51.3	51.3	51.3	93	49.3	0	3	248	0.00	29.748 
08:10	51.6	51.6	51.6	93	49.6	0	4	248	0.00	29.748 
08:15	51.7	51.7	51.7	93	49.7	0	3	248	0.00	29.749 
08:20	52.0	52.0	52.0	93	50.0	0	3	270	0.00	29.749 
08:25	52.2	52.2	52.2	93	50.2	0	1	270	0.00	29.749 
08:30	52.3	52.3	52.3	93	50.3	0	2	270	0.00	29.753 
08:35	52.5	52.5	52.5	93	50.5	0	2	270	0.00	29.753 
08:40	52.6	52.6	52.6	92	50.3	0	3	248	0.00	29.753 
08:45	52.8	52.8	52.8	92	50.5	0	2	248	0.00	29.760 
08:50	53.1	53.1	53.1	92	50.8	0	2	248	0.00	29.760 
08:55	53.2	53.2	53.2	92	50.9	0	2	248	0.00	29.760 
09:00	53.5	53.5	53.5	92	51.2	0	2	248	0.00	29.764 
09:05	53.6	53.6	53.6	92	51.3	0	1	248	0.00	29.764 
09:10	53.9	53.9	53.9	92	51.6	0	1	248	0.00	29.764 
09:15	54.2	54.2	54.2	92	51.9	0	4	248	0.00	29.765 
09:20	54.5	54.5	54.5	91	51.9	0	2	248	0.00	29.765 
09:25	55.0	55.0	55.0	91	52.4	1	3	248	0.00	29.765 
09:30	55.4	55.4	55.4	91	52.8	1	5	248	0.00	29.764 
09:35	56.0	56.0	56.0	90	53.1	1	7	248	0.00	29.764 
09:40	56.5	56.5	56.5	89	53.3	2	7	248	0.00	29.764 
09:45	56.7	56.7	56.7	88	53.2	2	5	248	0.00	29.765 
09:50	57.0	57.0	57.0	88	53.5	2	7	270	0.00	29.765 
09:55	57.2	57.2	57.2	87	53.4	1	4	248	0.00	29.765 
10:00	57.3	57.3	57.3	86	53.1	1	9	270	0.00	29.771 
10:05	57.5	57.5	57.5	86	53.3	1	4	270	0.00	29.771 
10:10	57.8	57.8	57.8	85	53.3	1	4	270	0.00	29.771 
10:15	57.8	57.8	57.8	85	53.3	1	5	248	0.00	29.775 
10:20	58.0	58.0	58.0	84	53.2	2	5	248	0.00	29.775 
10:25	58.3	58.3	58.3	84	53.5	2	7	248	0.00	29.775 
10:30	58.4	58.4	58.4	84	53.6	1	6	248	0.00	29.776 
10:35	58.6	58.6	58.6	84	53.8	1	6	248	0.00	29.776 
10:40	58.7	58.7	58.7	83	53.5	2	5	248	0.00	29.776 
10:45	58.9	58.9	58.9	83	53.7	1	4	248	0.00	29.774 
10:50	59.0	59.0	59.0	82	53.5	2	4	248	0.00	29.774 
10:55	59.2	59.2	59.2	82	53.7	2	7	270	0.00	29.774 
11:00	59.3	59.3	59.3	81	53.5	2	7	248	0.00	29.773 
11:05	59.5	59.5	59.5	81	53.7	2	7	248	0.00	29.773 
11:10	59.8	59.8	59.8	81	54.0	2	9	248	0.00	29.773 
11:15	59.9	59.9	59.9	80	53.7	1	5	248	0.00	29.769 
11:20	60.1	60.1	60.1	80	53.9	2	6	248	0.00	29.769 
11:25	60.1	60.1	60.1	80	53.9	1	4	248	0.00	29.769 
11:30	60.2	60.2	60.2	79	53.7	2	6	248	0.00	29.770 
11:35	60.1	60.1	60.1	79	53.6	1	4	248	0.00	29.770 
11:40	60.1	60.1	60.1	79	53.6	1	6	248	0.00	29.770 
11:45	60.1	60.1	60.1	80	53.9	2	7	270	0.00	29.771 
11:50	59.9	59.9	59.9	80	53.7	1	6	248	0.00	29.771 
11:55	59.9	59.9	59.9	80	53.7	1	5	248	0.00	29.771 
12:00	59.9	59.9	59.9	80	53.7	2	7	248	0.00	29.769 
12:05	59.9	59.9	59.9	80	53.7	2	5	248	0.00	29.769 
12:10	59.9	59.9	59.9	80	53.7	1	6	248	0.00	29.769 
12:15	59.9	59.9	59.9	80	53.7	1	3	248	0.00	29.765 
12:20	59.9	59.9	59.9	80	53.7	2	8	225	0.00	29.765 
12:25	60.1	60.1	60.1	80	53.9	2	6	248	0.00	29.765 
12:30	60.1	60.1	60.1	80	53.9	2	6	248	0.00	29.763 
12:35	60.2	60.2	60.2	80	54.0	1	4	248	0.00	29.763 
12:40	60.4	60.4	60.4	79	53.9	2	9	248	0.00	29.763 
12:45	60.5	60.5	60.5	79	54.0	2	6	248	0.00	29.760 
12:50	60.5	60.5	60.5	79	54.0	2	8	248	0.00	29.760 
12:55	60.7	60.7	60.7	79	54.1	1	4	248	0.00	29.760 
13:00	60.9	60.9	60.9	79	54.3	1	5	248	0.00	29.758 
13:05	60.9	60.9	60.9	78	54.0	2	7	248	0.00	29.758 
13:10	60.9	60.9	60.9	78	54.0	2	8	248	0.00	29.758 
13:15	60.9	60.9	60.9	78	54.0	2	6	248	0.00	29.757 
13:20	61.0	61.0	61.0	78	54.1	1	4	248	0.00	29.757 
13:25	61.0	61.0	61.0	78	54.1	2	4	270	0.00	29.757 
13:30	61.0	61.0	61.0	78	54.1	1	4	248	0.00	29.756 
13:35	61.0	61.0	61.0	78	54.1	2	6	248	0.00	29.756 
13:40	61.2	61.2	61.2	78	54.3	2	6	248	0.00	29.756 
13:45	61.3	61.3	61.3	78	54.4	1	4	225	0.00	29.754 
13:50	61.3	61.3	61.3	77	54.0	1	4	248	0.00	29.754 
13:55	61.3	61.3	61.3	77	54.0	1	3	248	0.00	29.754 
14:00	61.3	61.3	61.3	77	54.0	1	4	248	0.00	29.756 
14:05	61.5	61.5	61.5	77	54.2	1	6	248	0.00	29.756 
14:10	61.5	61.5	61.5	77	54.2	2	7	248	0.00	29.756 
14:15	61.6	61.6	61.6	77	54.3	2	6	248	0.00	29.755 
14:20	61.6	61.6	61.6	77	54.3	2	6	248	0.00	29.755 
14:25	61.6	61.6	61.6	76	54.0	1	4	248	0.00	29.755 
14:30	61.6	61.6	61.6	76	54.0	3	8	248	0.00	29.756 
14:35	61.6	61.6	61.6	76	54.0	1	5	248	0.00	29.756 
14:40	61.6	61.6	61.6	76	54.0	2	6	248	0.00	29.756 
14:45	61.6	61.6	61.6	77	54.3	2	5	248	0.00	29.758 
14:50	61.6	61.6	61.6	77	54.3	2	6	248	0.00	29.758 
14:55	61.6	61.6	61.6	77	54.3	2	6	248	0.00	29.758 
15:00	61.6	61.6	61.6	77	54.3	2	5	248	0.00	29.767 
15:05	61.5	61.5	61.5	77	54.2	2	7	270	0.00	29.767 
15:10	61.5	61.5	61.5	77	54.2	2	7	225	0.00	29.767 
15:15	61.5	61.5	61.5	77	54.2	1	4	248	0.00	29.774 
15:20	61.5	61.5	61.5	77	54.2	1	6	248	0.00	29.774 
15:25	61.5	61.5	61.5	77	54.2	1	4	248	0.00	29.774 
15:30	61.3	61.3	61.3	77	54.0	2	6	248	0.00	29.777 
15:35	61.3	61.3	61.3	77	54.0	1	5	248	0.00	29.777 
15:40	61.3	61.3	61.3	77	54.0	2	6	248	0.00	29.777 
15:45	61.3	61.3	61.3	77	54.0	1	5	248	0.00	29.789 
15:50	61.2	61.2	61.2	77	53.9	1	5	248	0.00	29.789 
15:55	61.2	61.2	61.2	78	54.3	1	4	248	0.00	29.789 
16:00	61.2	61.2	61.2	78	54.3	2	6	248	0.00	29.790 
16:05	61.0	61.0	61.0	79	54.4	0	2	225	0.00	29.790 
16:10	60.9	60.9	60.9	80	54.7	1	4	270	0.00	29.790 
16:15	60.7	60.7	60.7	80	54.5	1	4	270	0.00	29.798 
16:20	60.5	60.5	60.5	80	54.3	1	4	248	0.00	29.798 
16:25	60.5	60.5	60.5	80	54.3	1	4	248	0.00	29.798 
16:30	60.5	60.5	60.5	80	54.3	1	4	248	0.00	29.807 
16:35	60.5	60.5	60.5	81	54.6	2	10	248	0.00	29.807 
16:40	60.5	60.5	60.5	81	54.6	1	6	225	0.00	29.807 
16:45	60.5	60.5	60.5	81	54.6	1	5	225	0.00	29.811 
16:50	60.5	60.5	60.5	81	54.6	2	6	248	0.00	29.811 
16:55	60.5	60.5	60.5	81	54.6	1	6	248	0.00	29.811 
17:00	60.5	60.5	60.5	81	54.6	1	5	248	0.00	29.816 
17:05	60.4	60.4	60.4	81	54.5	1	5	248	0.00	29.816 
17:10	60.5	60.5	60.5	81	54.6	2	6	248	0.00	29.816 
17:15	60.4	60.4	60.4	81	54.5	1	5	270	0.00	29.822 
17:20	60.5	60.5	60.5	81	54.6	1	4	270	0.00	29.822 
17:25	60.4	60.4	60.4	81	54.5	1	3	248	0.00	29.822 
17:30	60.4	60.4	60.4	81	54.5	1	3	248	0.00	29.828 
17:35	60.4	60.4	60.4	81	54.5	1	2	248	0.00	29.828 
17:40	60.2	60.2	60.2	82	54.7	0	4	248	0.00	29.828 
17:45	60.1	60.1	60.1	83	54.9	2	4	270	0.01	29.846 
17:50	59.6	59.6	59.6	84	54.8	1	4	270	0.00	29.846 
17:55	59.3	59.3	59.3	84	54.5	2	5	292	0.00	29.846 
18:00	59.0	59.0	59.0	84	54.2	1	5	270	0.00	29.861 
18:05	58.9	58.9	58.9	84	54.1	2	5	270	0.00	29.861 
18:10	58.7	58.7	58.7	84	53.9	2	4	270	0.00	29.861 
18:15	58.6	58.6	58.6	84	53.8	2	4	270	0.00	29.871 
18:20	58.6	58.6	58.6	84	53.8	3	5	270	0.00	29.871 
18:25	58.1	58.1	58.1	83	53.0	3	6	270	0.00	29.871 
18:30	56.9	56.9	56.9	82	51.5	3	6	292	0.00	29.890 
18:35	56.0	56.0	56.0	83	50.9	3	7	270	0.00	29.890 
18:40	54.7	54.7	54.7	82	49.3	4	7	292	0.00	29.890 
18:45	53.8	53.8	53.8	84	49.1	2	5	315	0.00	29.906 
18:50	53.3	53.3	53.3	85	48.9	2	6	292	0.00	29.906 
18:55	52.8	52.8	52.8	85	48.4	2	6	338	0.00	29.906 
19:00	51.9	51.9	51.9	85	47.5	3	6	292	0.00	29.923 
19:05	51.3	51.3	51.3	86	47.3	1	5	315	0.00	29.923 
19:10	50.8	50.8	50.8	86	46.8	1	3	315	0.00	29.923 
19:15	50.1	50.1	50.1	86	46.1	2	6	338	0.00	29.939 
19:20	49.5	49.5	49.5	87	45.8	2	5	248	0.00	29.939 
19:25	49.1	49.1	49.1	87	45.4	1	5	338	0.00	29.939 
19:30	48.8	48.8	48.8	88	45.4	1	4	338	0.00	29.950 
19:35	48.5	48.5	48.5	88	45.1	1	4	248	0.00	29.950 
19:40	48.2	48.2	48.2	88	44.8	2	6	315	0.00	29.950 
19:45	47.6	47.6	47.6	88	44.2	1	5	292	0.00	29.965 
19:50	47.3	47.3	47.3	88	43.9	1	5	338	0.00	29.965 
19:55	47.1	47.1	47.1	88	43.7	1	3	338	0.00	29.965 
20:00	46.7	46.7	46.7	88	43.3	1	3	292	0.00	29.975 
20:05	46.4	46.4	46.4	88	43.0	1	3	270	0.00	29.975 
20:10	46.1	46.1	46.1	87	42.4	2	4	292	0.00	29.975 
20:15	45.7	45.7	45.7	87	42.1	2	4	292	0.00	29.977 
20:20	45.4	45.4	45.4	87	41.8	2	4	270	0.00	29.977 
20:25	45.1	45.1	45.1	87	41.5	1	4	270	0.00	29.977 
20:30	44.9	44.9	44.9	87	41.3	1	3	270	0.00	29.993 
20:35	44.6	44.6	44.6	87	41.0	1	3	270	0.00	29.993 
20:40	44.3	44.3	44.3	87	40.7	1	4	270	0.00	29.993 
20:45	44.1	44.1	44.1	87	40.5	2	4	270	0.00	30.001 
20:50	43.8	43.8	43.8	87	40.2	2	6	270	0.00	30.001 
20:55	43.5	43.5	43.5	87	39.9	2	5	248	0.00	30.001 
21:00	43.3	43.3	43.3	87	39.7	1	3	338	0.00	30.009 
21:05	42.9	42.9	42.9	87	39.3	2	5	270	0.00	30.009 
21:10	42.6	42.6	42.6	88	39.3	2	5	270	0.00	30.009 
21:15	42.5	42.5	42.5	88	39.2	1	5	338	0.00	30.014 
21:20	42.1	42.1	42.1	88	38.8	2	5	270	0.00	30.014 
21:25	41.8	41.8	41.8	88	38.5	1	5	270	0.00	30.014 
21:30	41.6	41.6	41.6	88	38.3	1	4	270	0.00	30.026 
21:35	41.6	41.6	41.6	88	38.3	1	3	315	0.00	30.026 
21:40	41.5	41.5	41.5	88	38.2	1	4	292	0.00	30.026 
21:45	41.5	41.5	41.5	88	38.2	2	7	292	0.00	30.038 
21:50	41.3	41.3	41.3	88	38.0	1	4	315	0.00	30.038 
21:55	41.2	41.2	41.2	88	37.9	1	5	292	0.00	30.038 
22:00	41.1	41.1	41.1	88	37.8	1	4	292	0.00	30.050 
22:05	41.1	41.1	41.1	88	37.8	1	4	315	0.00	30.050 
22:10	40.9	40.9	40.9	88	37.6	1	5	292	0.00	30.050 
22:15	40.9	40.9	40.9	89	37.9	1	3	315	0.00	30.054 
22:20	40.9	40.9	40.9	89	37.9	0	3	315	0.00	30.054 
22:25	40.9	40.9	40.9	89	37.9	1	2	315	0.00	30.054 
22:30	40.8	40.8	40.8	89	37.8	0	2	315	0.00	30.057 
22:35	40.8	40.8	40.8	88	37.5	1	3	292	0.00	30.057 
22:40	40.6	40.6	40.6	88	37.3	1	3	292	0.00	30.057 
22:45	40.5	40.5	40.5	88	37.2	2	4	292	0.00	30.071 
22:50	40.5	40.5	40.5	88	37.2	1	5	292	0.00	30.071 
22:55	40.3	40.3	40.3	88	37.0	1	3	292	0.00	30.071 
23:00	40.3	40.3	40.3	88	37.0	2	5	270	0.00	30.085 
23:05	40.2	40.2	40.2	88	36.9	2	5	292	0.00	30.085 
23:10	40.2	40.2	40.2	88	36.9	1	5	338	0.00	30.085 
23:15	40.2	40.2	40.2	87	36.6	1	4	338	0.00	30.089 
23:20	40.2	40.2	40.2	87	36.6	1	5	338	0.00	30.089 
23:25	40.2	40.2	40.2	87	36.6	1	4	338	0.00	30.089 
23:30	40.2	40.2	40.2	87	36.6	0	2	338	0.00	30.097 
23:35	40.1	40.1	40.1	87	36.5	1	5	270	0.00	30.097 
23:40	40.1	40.1	40.1	87	36.5	1	3	270	0.00	30.097 
23:45	40.1	40.1	40.1	86	36.3	1	4	270	0.00	30.105 
23:50	40.1	40.1	40.1	86	36.3	1	4	292	0.00	30.105 
23:55	39.9	39.9	39.9	86	36.1	1	3	292	0.00	30.105 

CoCoRaHS
IN-AL-39
A2 Web Hosting
Creative Commons License
GoDaddy
search engine by freefind advanced

loaded 2018-11-18 11:07:31 • last modified 2010-11-18 10:43:29
Privacy PolicyDisclaimer
• wx.awcolley.com is powered by PmWiki v.2002016 •
• all content (unless otherwise noted) © 2018 A W Colley